Time;durP1;ratioP1;P1;durP2;ratioP2;P2;SDS_P1;SDS_P2;PMS_P1;PMS_P2;Temp;Humidity;BMP_temperature;BMP_pressure;BME280_temperature;BME280_humidity;BME280_pressure;Samples;Min_cycle;Max_cycle;Signal;HPM_P1;HPM_P2
2021/08/17 00:02:03;;;;;;;13.82;6.45;;;;;;;;;;4842956;29;20163;-77
2021/08/17 00:04:53;;;;;;;14.52;5.70;;;;;;;;;;4842768;29;20112;-74
2021/08/17 00:07:35;;;;;;;12.50;5.25;;;;;;;;;;4844302;29;20072;-77
2021/08/17 00:10:32;;;;;;;10.48;5.75;;;;;;;;;;4842658;29;20484;-76
2021/08/17 00:14:07;;;;;;;;;;;;;;;;;;;;;
2021/08/17 00:17:24;;;;;;;16.67;6.15;;;;;;;;;;4857372;29;20141;-76
2021/08/17 00:20:00;;;;;;;14.25;7.32;;;;;;;;;;4842206;29;20129;-76
2021/08/17 00:22:48;;;;;;;17.73;6.85;;;;;;;;;;4823245;29;20054;-75
2021/08/17 00:25:56;;;;;;;13.43;6.57;;;;;;;;;;4840016;29;20069;-76
2021/08/17 00:28:57;;;;;;;18.85;7.53;;;;;;;;;;4834393;29;20081;-75
2021/08/17 00:32:00;;;;;;;16.42;7.30;;;;;;;;;;4853332;29;20068;-75
2021/08/17 00:35:16;;;;;;;13.52;6.50;;;;;;;;;;4846176;29;20101;-74
2021/08/17 00:38:49;;;;;;;16.10;7.32;;;;;;;;;;4848810;29;20057;-76
2021/08/17 00:41:54;;;;;;;12.77;6.78;;;;;;;;;;4845664;29;20088;-77
2021/08/17 00:45:08;;;;;;;15.00;7.45;;;;;;;;;;4845014;29;20045;-74
2021/08/17 00:48:14;;;;;;;14.90;7.32;;;;;;;;;;4845102;29;20067;-76
2021/08/17 00:50:57;;;;;;;15.32;7.28;;;;;;;;;;4824994;29;20057;-74
2021/08/17 00:53:24;;;;;;;17.38;7.88;;;;;;;;;;4823164;29;20058;-74
2021/08/17 00:55:51;;;;;;;18.85;7.78;;;;;;;;;;4823655;29;20442;-75
2021/08/17 00:58:18;;;;;;;17.38;7.78;;;;;;;;;;4838660;29;20065;-74
2021/08/17 01:00:47;;;;;;;16.67;7.97;;;;;;;;;;4823643;29;20550;-75
2021/08/17 01:03:14;;;;;;;17.30;7.85;;;;;;;;;;4838708;29;20148;-74
2021/08/17 01:05:41;;;;;;;11.85;7.00;;;;;;;;;;4838558;29;20050;-74
2021/08/17 01:08:08;;;;;;;14.10;7.13;;;;;;;;;;4838594;29;20506;-74
2021/08/17 01:21:16;;;;;;;14.07;6.53;;;;;;;;;;5496951;23;20109;-73
2021/08/17 01:23:44;;;;;;;12.38;6.80;;;;;;;;;;4894983;29;20079;-73
2021/08/17 01:26:11;;;;;;;13.00;6.28;;;;;;;;;;4895430;29;20056;-73
2021/08/17 01:28:37;;;;;;;15.38;7.20;;;;;;;;;;4896126;29;20091;-74
2021/08/17 01:31:06;;;;;;;12.73;6.47;;;;;;;;;;4896591;29;20052;-74
2021/08/17 01:33:33;;;;;;;13.98;7.32;;;;;;;;;;4896905;29;20398;-74
2021/08/17 01:36:02;;;;;;;15.68;7.40;;;;;;;;;;4890997;29;20083;-73
2021/08/17 01:38:29;;;;;;;15.32;7.32;;;;;;;;;;4885795;29;20049;-73
2021/08/17 01:40:56;;;;;;;14.48;7.63;;;;;;;;;;4876386;29;20088;-73
2021/08/17 01:43:22;;;;;;;14.23;7.00;;;;;;;;;;4877610;29;20113;-73
2021/08/17 01:46:01;;;;;;;18.83;7.07;;;;;;;;;;4876439;29;20053;-73
2021/08/17 01:48:29;;;;;;;15.30;7.60;;;;;;;;;;4877532;29;20057;-73
2021/08/17 01:50:56;;;;;;;12.90;6.40;;;;;;;;;;4876253;29;20111;-72
2021/08/17 01:53:25;;;;;;;13.60;6.95;;;;;;;;;;4880262;29;20160;-72
2021/08/17 01:55:52;;;;;;;13.90;7.03;;;;;;;;;;4877814;29;20077;-72
2021/08/17 01:58:25;;;;;;;19.40;7.63;;;;;;;;;;4880820;29;20124;-72
2021/08/17 02:00:52;;;;;;;;;;;;;;;;;;4881370;29;20406;-72
2021/08/17 02:03:19;;;;;;;16.92;7.53;;;;;;;;;;4880900;29;19924;-72
2021/08/17 02:05:46;;;;;;;16.17;7.22;;;;;;;;;;4889425;29;20124;-71
2021/08/17 02:08:12;;;;;;;13.65;6.85;;;;;;;;;;4880771;29;20458;-73
2021/08/17 02:10:39;;;;;;;15.68;7.72;;;;;;;;;;4880493;29;20084;-73
2021/08/17 02:13:05;;;;;;;15.55;6.78;;;;;;;;;;4880727;29;20089;-73
2021/08/17 02:15:32;;;;;;;16.08;7.97;;;;;;;;;;4879312;29;20120;-72
2021/08/17 02:17:59;;;;;;;18.10;7.68;;;;;;;;;;4880562;29;20136;-73
2021/08/17 02:20:26;;;;;;;16.00;6.88;;;;;;;;;;4879122;29;20095;-71
2021/08/17 02:22:52;;;;;;;14.80;7.18;;;;;;;;;;4881065;29;20045;-73
2021/08/17 02:25:19;;;;;;;14.23;6.60;;;;;;;;;;4892467;29;20104;-73
2021/08/17 02:27:46;;;;;;;14.63;7.43;;;;;;;;;;4898865;29;20056;-73
2021/08/17 02:30:13;;;;;;;16.58;7.50;;;;;;;;;;4895951;29;20045;-72
2021/08/17 02:32:39;;;;;;;13.77;6.80;;;;;;;;;;4879001;29;20101;-72
2021/08/17 02:35:07;;;;;;;14.23;6.88;;;;;;;;;;4890178;29;20107;-73
2021/08/17 02:37:34;;;;;;;13.50;6.30;;;;;;;;;;4898979;29;20053;-73
2021/08/17 02:40:00;;;;;;;19.00;6.70;;;;;;;;;;4892849;29;20087;-72
2021/08/17 02:42:27;;;;;;;13.38;6.68;;;;;;;;;;4879763;29;20505;-73
2021/08/17 02:44:54;;;;;;;15.18;6.68;;;;;;;;;;4879067;29;20077;-73
2021/08/17 02:47:20;;;;;;;14.02;6.55;;;;;;;;;;4879808;29;20088;-73
2021/08/17 02:49:47;;;;;;;14.50;6.55;;;;;;;;;;4880179;29;20095;-73
2021/08/17 02:52:13;;;;;;;14.68;7.07;;;;;;;;;;4898615;29;20048;-73
2021/08/17 02:54:41;;;;;;;11.68;6.28;;;;;;;;;;4898344;29;20131;-73
2021/08/17 02:57:10;;;;;;;11.80;6.30;;;;;;;;;;4898543;29;20053;-73
2021/08/17 02:59:37;;;;;;;14.82;6.50;;;;;;;;;;4898260;29;20087;-73
2021/08/17 03:02:03;;;;;;;13.25;6.60;;;;;;;;;;4898490;29;20081;-73
2021/08/17 03:04:30;;;;;;;13.88;6.90;;;;;;;;;;4898275;29;20048;-74
2021/08/17 03:06:57;;;;;;;12.98;7.05;;;;;;;;;;4898328;29;20052;-73
2021/08/17 03:09:23;;;;;;;14.50;7.10;;;;;;;;;;4896195;29;20048;-73
2021/08/17 03:11:50;;;;;;;16.17;6.78;;;;;;;;;;4897106;29;20096;-73
2021/08/17 03:14:16;;;;;;;10.50;6.00;;;;;;;;;;4898277;29;20113;-74
2021/08/17 03:16:43;;;;;;;16.13;6.13;;;;;;;;;;4898232;29;20060;-73
2021/08/17 03:19:09;;;;;;;12.50;6.72;;;;;;;;;;4889333;29;20101;-72
2021/08/17 03:21:36;;;;;;;14.40;6.35;;;;;;;;;;4881406;29;20049;-74
2021/08/17 03:24:03;;;;;;;13.02;5.97;;;;;;;;;;4897436;29;20083;-73
2021/08/17 03:26:29;;;;;;;12.00;6.03;;;;;;;;;;4886134;29;20053;-74
2021/08/17 03:28:56;;;;;;;17.02;6.57;;;;;;;;;;4898002;29;20049;-73
2021/08/17 03:31:22;;;;;;;13.40;6.05;;;;;;;;;;4896362;29;20064;-73
2021/08/17 03:33:51;;;;;;;11.80;5.47;;;;;;;;;;4879420;29;20049;-73
2021/08/17 03:36:18;;;;;;;10.18;5.15;;;;;;;;;;4896976;29;20144;-73
2021/08/17 03:38:45;;;;;;;11.10;5.25;;;;;;;;;;4897743;29;20088;-73
2021/08/17 03:41:11;;;;;;;13.48;5.82;;;;;;;;;;4886609;29;20092;-74
2021/08/17 03:43:38;;;;;;;9.65;5.75;;;;;;;;;;4878970;29;20057;-72
2021/08/17 03:46:05;;;;;;;12.68;5.50;;;;;;;;;;4879091;29;20508;-74
2021/08/17 03:48:33;;;;;;;12.05;5.93;;;;;;;;;;4890935;29;20056;-74
2021/08/17 03:50:59;;;;;;;8.90;5.13;;;;;;;;;;4897727;29;20108;-74
2021/08/17 03:53:26;;;;;;;12.57;6.10;;;;;;;;;;4895962;29;20083;-74
2021/08/17 03:55:53;;;;;;;13.82;5.88;;;;;;;;;;4897776;29;20044;-74
2021/08/17 03:58:20;;;;;;;11.45;5.18;;;;;;;;;;4897401;29;20476;-74
2021/08/17 04:00:47;;;;;;;12.38;5.82;;;;;;;;;;4897390;29;20515;-73
2021/08/17 04:03:13;;;;;;;13.43;5.97;;;;;;;;;;4897362;29;20060;-73
2021/08/17 04:05:40;;;;;;;13.48;5.75;;;;;;;;;;4897235;29;20393;-74
2021/08/17 04:08:08;;;;;;;10.20;5.25;;;;;;;;;;4888403;29;20532;-74
2021/08/17 04:10:34;;;;;;;12.13;5.90;;;;;;;;;;4878514;29;20061;-73
2021/08/17 04:13:01;;;;;;;14.55;5.93;;;;;;;;;;4878249;29;20561;-73
2021/08/17 04:15:28;;;;;;;12.48;5.13;;;;;;;;;;4881853;29;20492;-74
2021/08/17 04:17:54;;;;;;;10.20;5.60;;;;;;;;;;4896159;29;20056;-73
2021/08/17 04:20:22;;;;;;;10.98;5.32;;;;;;;;;;4896606;29;20056;-73
2021/08/17 04:22:48;;;;;;;11.20;5.45;;;;;;;;;;4896336;29;20080;-74
2021/08/17 04:25:15;;;;;;;12.90;5.50;;;;;;;;;;4896996;29;20483;-74
2021/08/17 04:27:41;;;;;;;9.82;4.65;;;;;;;;;;4892014;29;20049;-73
2021/08/17 04:30:08;;;;;;;10.95;4.70;;;;;;;;;;4880486;29;20088;-74
2021/08/17 04:32:35;;;;;;;12.25;5.35;;;;;;;;;;4895430;29;20091;-74
2021/08/17 04:35:02;;;;;;;9.52;5.13;;;;;;;;;;4895311;29;20469;-73
2021/08/17 04:37:28;;;;;;;12.50;5.78;;;;;;;;;;4878044;29;20506;-73
2021/08/17 04:39:55;;;;;;;9.48;5.20;;;;;;;;;;4884849;29;20127;-73
2021/08/17 04:42:21;;;;;;;9.82;5.85;;;;;;;;;;4896807;29;20056;-73
2021/08/17 04:44:48;;;;;;;11.80;5.53;;;;;;;;;;4880761;29;20137;-73
2021/08/17 04:47:14;;;;;;;9.23;5.35;;;;;;;;;;4877816;29;20113;-73
2021/08/17 04:49:41;;;;;;;11.27;5.35;;;;;;;;;;4878030;29;20084;-73
2021/08/17 04:52:07;;;;;;;8.55;5.43;;;;;;;;;;4877976;29;20091;-73
2021/08/17 04:54:34;;;;;;;10.20;5.38;;;;;;;;;;4877950;29;20076;-73
2021/08/17 04:57:01;;;;;;;10.73;5.10;;;;;;;;;;4878186;29;20076;-73
2021/08/17 04:59:27;;;;;;;10.90;4.88;;;;;;;;;;4895502;29;20080;-73
2021/08/17 05:01:54;;;;;;;14.15;6.53;;;;;;;;;;4880023;29;20101;-73
2021/08/17 05:04:20;;;;;;;12.90;6.43;;;;;;;;;;4876765;29;20068;-72
2021/08/17 05:06:47;;;;;;;9.93;5.97;;;;;;;;;;4877894;29;20172;-73
2021/08/17 05:09:14;;;;;;;11.38;5.40;;;;;;;;;;4894220;29;20108;-73
2021/08/17 05:11:40;;;;;;;11.02;5.15;;;;;;;;;;4881849;29;20222;-72
2021/08/17 05:14:07;;;;;;;10.25;4.82;;;;;;;;;;4877841;29;20052;-72
2021/08/17 05:16:34;;;;;;;10.18;5.63;;;;;;;;;;4877673;29;20101;-72
2021/08/17 05:19:01;;;;;;;12.10;5.47;;;;;;;;;;4877542;29;20082;-72
2021/08/17 05:21:28;;;;;;;10.68;4.75;;;;;;;;;;4898192;29;20072;-72
2021/08/17 05:23:56;;;;;;;10.88;5.40;;;;;;;;;;4899968;29;20503;-73
2021/08/17 05:26:24;;;;;;;8.82;5.10;;;;;;;;;;4896447;29;20049;-73
2021/08/17 05:28:50;;;;;;;12.43;5.35;;;;;;;;;;4899004;29;20497;-72
2021/08/17 05:31:17;;;;;;;8.63;4.45;;;;;;;;;;4899809;29;20107;-72
2021/08/17 05:33:43;;;;;;;7.63;4.35;;;;;;;;;;4900144;29;20523;-73
2021/08/17 05:36:10;;;;;;;10.80;5.13;;;;;;;;;;4900037;29;20084;-73
2021/08/17 05:38:36;;;;;;;8.18;4.78;;;;;;;;;;4899752;29;20049;-73
2021/08/17 05:41:03;;;;;;;7.88;4.32;;;;;;;;;;4899881;29;20056;-72
2021/08/17 05:43:30;;;;;;;10.70;5.10;;;;;;;;;;4899931;29;20076;-72
2021/08/17 05:46:05;;;;;;;6.95;4.40;;;;;;;;;;4900228;29;20120;-73
2021/08/17 05:48:35;;;;;;;9.82;4.28;;;;;;;;;;4899594;29;20053;-72
2021/08/17 05:51:02;;;;;;;9.55;4.60;;;;;;;;;;4912944;29;20467;-69
2021/08/17 05:53:28;;;;;;;7.95;4.72;;;;;;;;;;4917556;29;20115;-72
2021/08/17 05:55:55;;;;;;;7.68;4.35;;;;;;;;;;4916928;29;20084;-72
2021/08/17 05:58:22;;;;;;;8.73;4.20;;;;;;;;;;4909635;29;20057;-71
2021/08/17 06:00:48;;;;;;;7.15;4.40;;;;;;;;;;4897730;29;20088;-72
2021/08/17 06:03:15;;;;;;;10.48;4.68;;;;;;;;;;4897837;29;20056;-72
2021/08/17 06:05:42;;;;;;;8.57;4.47;;;;;;;;;;4897354;29;20048;-71
2021/08/17 06:08:08;;;;;;;9.98;4.93;;;;;;;;;;4897589;29;20091;-72
2021/08/17 06:10:35;;;;;;;9.07;4.30;;;;;;;;;;4896310;29;20120;-73
2021/08/17 06:13:01;;;;;;;9.50;4.72;;;;;;;;;;4896742;29;20056;-72
2021/08/17 06:15:28;;;;;;;7.72;4.25;;;;;;;;;;4897597;29;20548;-70
2021/08/17 06:18:01;;;;;;;7.65;4.40;;;;;;;;;;4894558;29;20063;-71
2021/08/17 06:20:28;;;;;;;8.23;4.65;;;;;;;;;;4891119;29;20060;-70
2021/08/17 06:22:55;;;;;;;8.25;4.80;;;;;;;;;;4897476;29;20109;-70
2021/08/17 06:25:22;;;;;;;10.30;4.28;;;;;;;;;;4897427;29;20120;-71
2021/08/17 06:27:48;;;;;;;12.02;5.65;;;;;;;;;;4891592;29;20086;-70
2021/08/17 06:30:15;;;;;;;12.02;5.68;;;;;;;;;;4885028;29;20065;-71
2021/08/17 06:32:54;;;;;;;11.30;5.25;;;;;;;;;;4879325;29;20057;-70
2021/08/17 06:35:21;;;;;;;11.27;5.35;;;;;;;;;;4896973;29;20056;-70
2021/08/17 06:37:48;;;;;;;8.55;4.60;;;;;;;;;;4896909;29;20430;-70
2021/08/17 06:40:15;;;;;;;7.88;4.55;;;;;;;;;;4896842;29;20104;-71
2021/08/17 06:42:41;;;;;;;7.20;4.25;;;;;;;;;;4896413;29;20056;-71
2021/08/17 06:45:09;;;;;;;8.00;4.50;;;;;;;;;;4896487;29;20088;-71
2021/08/17 06:47:46;;;;;;;7.38;4.53;;;;;;;;;;4896766;29;20099;-71
2021/08/17 06:50:33;;;;;;;5.90;3.92;;;;;;;;;;4896741;29;20140;-71
2021/08/17 06:53:00;;;;;;;6.82;4.28;;;;;;;;;;4893552;29;20061;-70
2021/08/17 06:55:26;;;;;;;6.75;4.40;;;;;;;;;;4899868;29;20092;-70
2021/08/17 06:57:53;;;;;;;8.32;4.15;;;;;;;;;;4897422;29;20077;-71
2021/08/17 07:00:20;;;;;;;8.00;4.35;;;;;;;;;;4905668;29;20064;-71
2021/08/17 07:02:47;;;;;;;8.95;4.78;;;;;;;;;;4915501;29;20052;-71
2021/08/17 07:05:28;;;;;;;7.95;5.30;;;;;;;;;;4915290;29;20056;-71
2021/08/17 07:07:55;;;;;;;12.18;4.50;;;;;;;;;;4915308;29;20115;-71
2021/08/17 07:10:21;;;;;;;11.32;4.65;;;;;;;;;;4914908;29;20220;-71
2021/08/17 07:13:05;;;;;;;6.22;4.32;;;;;;;;;;4915247;29;20473;-73
2021/08/17 07:15:31;;;;;;;9.27;5.03;;;;;;;;;;4916036;29;20079;-68
2021/08/17 07:17:58;;;;;;;8.35;4.63;;;;;;;;;;4897648;29;20049;-69
2021/08/17 07:20:26;;;;;;;8.00;4.40;;;;;;;;;;4897163;29;20112;-69
2021/08/17 07:22:52;;;;;;;9.50;4.57;;;;;;;;;;4892113;29;20129;-68
2021/08/17 07:25:19;;;;;;;9.35;4.85;;;;;;;;;;4877522;29;20080;-68
2021/08/17 07:27:46;;;;;;;9.13;4.97;;;;;;;;;;4877311;29;20072;-68
2021/08/17 07:30:12;;;;;;;10.57;4.93;;;;;;;;;;4877233;29;20092;-67
2021/08/17 07:32:40;;;;;;;7.28;4.65;;;;;;;;;;4876230;29;20052;-67
2021/08/17 07:35:08;;;;;;;9.43;5.45;;;;;;;;;;4894485;29;20060;-67
2021/08/17 07:37:35;;;;;;;9.80;4.85;;;;;;;;;;4895897;29;20492;-67
2021/08/17 07:40:05;;;;;;;9.00;4.70;;;;;;;;;;4922636;23;20140;-68
2021/08/17 07:42:32;;;;;;;8.80;4.57;;;;;;;;;;4879053;29;20084;-68
2021/08/17 07:44:59;;;;;;;9.57;4.80;;;;;;;;;;4871341;29;20073;-70
2021/08/17 07:47:25;;;;;;;10.25;5.63;;;;;;;;;;4880474;29;20068;-63
2021/08/17 07:49:52;;;;;;;11.48;5.05;;;;;;;;;;4877642;29;20412;-67
2021/08/17 07:52:19;;;;;;;8.98;4.50;;;;;;;;;;4877928;29;20100;-65
2021/08/17 07:54:45;;;;;;;9.63;4.70;;;;;;;;;;4877137;29;20568;-66
2021/08/17 07:57:12;;;;;;;7.38;4.72;;;;;;;;;;4876702;29;20512;-67
2021/08/17 07:59:38;;;;;;;10.20;4.82;;;;;;;;;;4877650;29;20659;-70
2021/08/17 08:02:05;;;;;;;7.72;4.75;;;;;;;;;;4876818;29;20056;-71
2021/08/17 08:04:32;;;;;;;9.88;4.80;;;;;;;;;;4878592;29;20059;-72
2021/08/17 08:06:59;;;;;;;9.00;5.03;;;;;;;;;;4877304;29;20465;-72
2021/08/17 08:09:26;;;;;;;10.07;4.20;;;;;;;;;;4876867;29;20143;-72
2021/08/17 08:11:53;;;;;;;6.35;4.07;;;;;;;;;;4877536;29;20135;-72
2021/08/17 08:14:19;;;;;;;9.82;4.60;;;;;;;;;;4877571;29;20073;-73
2021/08/17 08:16:46;;;;;;;7.65;4.63;;;;;;;;;;4876998;29;20073;-73
2021/08/17 08:19:15;;;;;;;9.20;4.35;;;;;;;;;;4874382;29;20447;-70
2021/08/17 08:21:42;;;;;;;8.25;4.47;;;;;;;;;;4876227;29;20529;-66
2021/08/17 08:24:08;;;;;;;10.55;5.10;;;;;;;;;;4876965;29;20095;-70
2021/08/17 08:26:35;;;;;;;9.38;4.75;;;;;;;;;;4875702;29;20404;-67
2021/08/17 08:29:02;;;;;;;8.57;4.68;;;;;;;;;;4876880;29;20486;-71
2021/08/17 08:31:28;;;;;;;9.32;4.22;;;;;;;;;;4877066;29;20568;-71
2021/08/17 08:33:55;;;;;;;7.05;4.38;;;;;;;;;;4877038;29;20132;-72
2021/08/17 08:36:21;;;;;;;8.73;5.00;;;;;;;;;;4876748;29;20040;-70
2021/08/17 08:38:49;;;;;;;7.90;4.68;;;;;;;;;;4876564;29;20053;-70
2021/08/17 08:41:18;;;;;;;8.20;4.65;;;;;;;;;;4878167;29;20132;-74
2021/08/17 08:43:46;;;;;;;7.00;4.45;;;;;;;;;;4875709;29;20560;-71
2021/08/17 08:46:16;;;;;;;7.03;4.90;;;;;;;;;;4876942;29;20049;-71
2021/08/17 08:48:46;;;;;;;6.85;4.00;;;;;;;;;;4876493;29;20092;-70
2021/08/17 08:51:13;;;;;;;8.88;4.57;;;;;;;;;;4877069;29;20456;-70
2021/08/17 08:53:43;;;;;;;7.40;3.92;;;;;;;;;;4876879;29;20057;-71
2021/08/17 08:56:10;;;;;;;6.82;4.22;;;;;;;;;;4876295;29;20045;-66
2021/08/17 08:58:37;;;;;;;7.13;4.93;;;;;;;;;;4874855;29;20053;-65
2021/08/17 09:01:04;;;;;;;8.15;5.13;;;;;;;;;;4890774;29;20501;-66
2021/08/17 09:03:50;;;;;;;6.72;4.35;;;;;;;;;;4876699;29;20137;-65
2021/08/17 09:06:31;;;;;;;7.90;4.15;;;;;;;;;;4876497;29;20053;-66
2021/08/17 09:09:16;;;;;;;8.15;5.05;;;;;;;;;;4879339;29;20085;-68
2021/08/17 09:11:56;;;;;;;9.63;4.55;;;;;;;;;;4880484;29;20088;-75
2021/08/17 09:14:32;;;;;;;6.68;4.47;;;;;;;;;;4861183;29;20057;-74
2021/08/17 09:17:01;;;;;;;9.20;4.85;;;;;;;;;;4878159;29;20047;-72
2021/08/17 09:19:48;;;;;;;8.68;4.40;;;;;;;;;;4893116;29;20059;-74
2021/08/17 09:22:22;;;;;;;8.05;4.65;;;;;;;;;;4880135;29;20112;-73
2021/08/17 09:24:50;;;;;;;7.18;4.88;;;;;;;;;;4878203;29;20053;-74
2021/08/17 09:27:19;;;;;;;7.32;4.28;;;;;;;;;;4880404;29;20235;-74
2021/08/17 09:29:48;;;;;;;10.68;4.68;;;;;;;;;;4894502;29;20120;-73
2021/08/17 09:32:26;;;;;;;6.47;4.78;;;;;;;;;;4878554;29;20056;-74
2021/08/17 09:34:54;;;;;;;6.70;4.07;;;;;;;;;;4878115;29;20489;-74
2021/08/17 09:37:34;;;;;;;8.27;3.97;;;;;;;;;;4878910;29;20105;-67
2021/08/17 09:40:03;;;;;;;5.95;3.80;;;;;;;;;;4880688;29;20059;-72
2021/08/17 09:42:33;;;;;;;8.82;4.05;;;;;;;;;;4880337;29;20088;-72
2021/08/17 09:45:05;;;;;;;6.07;4.00;;;;;;;;;;4877637;29;20087;-67
2021/08/17 09:47:36;;;;;;;8.05;4.30;;;;;;;;;;4878701;29;20084;-66
2021/08/17 09:50:38;;;;;;;8.77;4.47;;;;;;;;;;4880152;29;20476;-66
2021/08/17 09:53:14;;;;;;;7.28;4.00;;;;;;;;;;4856040;29;20053;-67
2021/08/17 09:55:46;;;;;;;10.15;4.03;;;;;;;;;;4875251;29;20053;-66
2021/08/17 09:58:25;;;;;;;6.35;3.63;;;;;;;;;;4879313;29;20080;-67
2021/08/17 10:00:58;;;;;;;5.20;3.85;;;;;;;;;;4879936;29;20080;-67
2021/08/17 10:03:27;;;;;;;6.65;3.55;;;;;;;;;;4878301;29;20049;-66
2021/08/17 10:05:54;;;;;;;6.18;3.67;;;;;;;;;;4879021;29;20056;-66
2021/08/17 10:08:22;;;;;;;7.28;3.80;;;;;;;;;;4879148;29;20087;-69
2021/08/17 10:10:51;;;;;;;6.80;3.97;;;;;;;;;;4893880;29;20186;-71
2021/08/17 10:13:21;;;;;;;6.85;4.28;;;;;;;;;;4863090;29;20085;-70
2021/08/17 10:15:49;;;;;;;4.93;3.33;;;;;;;;;;4870601;29;20060;-70
2021/08/17 10:18:21;;;;;;;6.38;3.63;;;;;;;;;;4878428;29;20080;-68
2021/08/17 10:20:49;;;;;;;6.97;3.97;;;;;;;;;;4876978;29;20056;-70
2021/08/17 10:23:18;;;;;;;7.15;3.47;;;;;;;;;;4878410;29;20057;-67
2021/08/17 10:25:50;;;;;;;4.70;3.70;;;;;;;;;;4878806;29;20497;-67
2021/08/17 10:28:27;;;;;;;6.15;3.83;;;;;;;;;;4878995;29;20072;-71
2021/08/17 10:30:54;;;;;;;8.00;3.72;;;;;;;;;;4893574;29;20045;-70
2021/08/17 10:33:54;;;;;;;4.95;3.58;;;;;;;;;;4891623;29;20053;-70
2021/08/17 10:36:32;;;;;;;6.22;3.65;;;;;;;;;;4878730;29;20049;-70
2021/08/17 10:39:00;;;;;;;5.53;3.47;;;;;;;;;;4878651;29;20053;-70
2021/08/17 10:41:31;;;;;;;4.53;3.30;;;;;;;;;;4879074;29;20109;-70
2021/08/17 10:43:57;;;;;;;7.05;4.05;;;;;;;;;;4879326;29;20108;-70
2021/08/17 10:46:45;;;;;;;7.18;3.50;;;;;;;;;;4878197;29;20081;-69
2021/08/17 10:49:27;;;;;;;6.13;3.55;;;;;;;;;;4876096;29;20091;-66
2021/08/17 10:51:56;;;;;;;5.63;3.78;;;;;;;;;;4878990;29;20081;-66
2021/08/17 10:54:23;;;;;;;5.07;3.15;;;;;;;;;;4878813;29;20124;-70
2021/08/17 10:56:50;;;;;;;4.85;3.00;;;;;;;;;;4876614;29;20053;-69
2021/08/17 10:59:41;;;;;;;4.35;2.97;;;;;;;;;;4877971;29;20580;-70
2021/08/17 11:02:09;;;;;;;4.47;3.08;;;;;;;;;;4878610;29;20088;-69
2021/08/17 11:04:39;;;;;;;4.78;3.00;;;;;;;;;;4875158;29;20053;-69
2021/08/17 11:07:41;;;;;;;4.63;2.88;;;;;;;;;;4877990;29;20178;-69
2021/08/17 11:10:10;;;;;;;4.25;2.38;;;;;;;;;;4857685;29;20092;-70
2021/08/17 11:12:38;;;;;;;4.55;2.63;;;;;;;;;;4865533;29;20057;-68
2021/08/17 11:15:07;;;;;;;5.28;2.80;;;;;;;;;;4878165;29;20129;-68
2021/08/17 11:17:34;;;;;;;4.85;3.25;;;;;;;;;;4877802;29;20076;-67
2021/08/17 11:20:02;;;;;;;5.82;2.85;;;;;;;;;;4878019;29;20049;-66
2021/08/17 11:22:35;;;;;;;5.35;3.00;;;;;;;;;;4878238;29;20423;-68
2021/08/17 11:25:04;;;;;;;3.95;3.10;;;;;;;;;;4877736;29;20121;-66
2021/08/17 11:27:41;;;;;;;4.80;3.17;;;;;;;;;;4875284;29;20079;-67
2021/08/17 11:30:09;;;;;;;4.80;2.95;;;;;;;;;;4877209;29;20103;-68
2021/08/17 11:32:36;;;;;;;5.63;3.47;;;;;;;;;;4877959;29;20087;-67
2021/08/17 11:35:05;;;;;;;6.40;2.95;;;;;;;;;;4876866;29;20120;-67
2021/08/17 11:37:33;;;;;;;6.50;3.42;;;;;;;;;;4876109;29;20147;-68
2021/08/17 11:40:02;;;;;;;6.00;3.40;;;;;;;;;;4879923;29;20135;-67
2021/08/17 11:42:31;;;;;;;5.95;3.88;;;;;;;;;;4877588;29;20381;-67
2021/08/17 11:45:00;;;;;;;4.47;2.90;;;;;;;;;;4876196;29;20084;-67
2021/08/17 11:47:28;;;;;;;6.32;3.00;;;;;;;;;;4876396;29;20072;-67
2021/08/17 11:49:57;;;;;;;3.95;2.55;;;;;;;;;;4877695;29;20080;-67
2021/08/17 11:52:25;;;;;;;4.93;2.90;;;;;;;;;;4877506;29;20080;-67
2021/08/17 11:54:56;;;;;;;4.53;2.42;;;;;;;;;;4874519;29;20080;-67
2021/08/17 11:57:29;;;;;;;4.88;3.20;;;;;;;;;;4876765;29;20041;-67
2021/08/17 12:00:01;;;;;;;3.65;2.80;;;;;;;;;;4877573;29;20064;-67
2021/08/17 12:02:28;;;;;;;4.63;3.00;;;;;;;;;;4877835;29;20405;-68
2021/08/17 12:05:00;;;;;;;4.65;2.50;;;;;;;;;;4876187;29;20516;-67
2021/08/17 12:07:28;;;;;;;4.25;2.78;;;;;;;;;;4873809;29;20080;-67
2021/08/17 12:09:55;;;;;;;3.83;2.40;;;;;;;;;;4877537;29;20469;-67
2021/08/17 12:12:53;;;;;;;4.63;2.60;;;;;;;;;;4877118;29;20073;-67
2021/08/17 12:15:25;;;;;;;2.78;2.45;;;;;;;;;;4874862;29;20128;-67
2021/08/17 12:17:56;;;;;;;3.63;1.95;;;;;;;;;;4875076;29;20073;-67
2021/08/17 12:20:22;;;;;;;2.80;2.17;;;;;;;;;;4876770;29;20083;-67
2021/08/17 12:22:49;;;;;;;4.05;2.53;;;;;;;;;;4877367;29;20053;-67
2021/08/17 12:25:23;;;;;;;3.35;2.30;;;;;;;;;;4890960;29;20096;-67
2021/08/17 12:27:58;;;;;;;4.25;2.60;;;;;;;;;;4888396;29;20468;-67
2021/08/17 12:30:26;;;;;;;3.33;2.53;;;;;;;;;;4875619;29;20357;-67
2021/08/17 12:32:55;;;;;;;5.20;2.60;;;;;;;;;;4874496;29;20520;-67
2021/08/17 12:35:31;;;;;;;4.38;3.00;;;;;;;;;;4873134;29;20080;-68
2021/08/17 12:38:16;;;;;;;4.30;2.13;;;;;;;;;;4875557;29;20132;-68
2021/08/17 12:40:50;;;;;;;3.65;2.45;;;;;;;;;;4875090;29;20907;-69
2021/08/17 12:43:25;;;;;;;5.05;2.63;;;;;;;;;;4872264;29;20095;-66
2021/08/17 12:45:53;;;;;;;5.38;2.53;;;;;;;;;;4870293;29;20132;-66
2021/08/17 12:48:21;;;;;;;3.45;2.50;;;;;;;;;;4873832;29;20531;-65
2021/08/17 12:50:49;;;;;;;3.70;2.28;;;;;;;;;;4875918;29;20072;-69
2021/08/17 12:53:25;;;;;;;5.18;3.00;;;;;;;;;;4875555;29;20552;-69
2021/08/17 12:55:53;;;;;;;3.28;2.63;;;;;;;;;;4870346;29;20049;-69
2021/08/17 12:58:21;;;;;;;3.42;2.58;;;;;;;;;;4856922;29;20137;-70
2021/08/17 13:00:48;;;;;;;4.28;2.47;;;;;;;;;;4857540;29;20065;-70
2021/08/17 13:03:16;;;;;;;3.35;2.70;;;;;;;;;;4857290;29;20140;-72
2021/08/17 13:05:43;;;;;;;3.95;2.47;;;;;;;;;;4859385;29;20159;-70
2021/08/17 13:08:10;;;;;;;4.93;3.05;;;;;;;;;;4857223;29;20248;-70
2021/08/17 13:10:37;;;;;;;3.67;2.08;;;;;;;;;;4857020;29;20053;-70
2021/08/17 13:13:04;;;;;;;3.20;2.50;;;;;;;;;;4856932;29;20081;-70
2021/08/17 13:15:31;;;;;;;3.38;2.50;;;;;;;;;;4859259;29;20049;-69
2021/08/17 13:17:58;;;;;;;4.43;2.80;;;;;;;;;;4870211;29;20425;-68
2021/08/17 13:20:25;;;;;;;5.65;2.55;;;;;;;;;;4856868;29;20145;-70
2021/08/17 13:22:53;;;;;;;5.28;3.20;;;;;;;;;;4857112;29;20085;-69
2021/08/17 13:25:21;;;;;;;3.35;2.38;;;;;;;;;;4857318;29;20057;-69
2021/08/17 13:27:47;;;;;;;3.45;2.47;;;;;;;;;;4875991;29;20077;-69
2021/08/17 13:30:14;;;;;;;5.47;2.83;;;;;;;;;;4876014;29;20114;-68
2021/08/17 13:32:40;;;;;;;4.15;2.92;;;;;;;;;;4875328;29;20095;-68
2021/08/17 13:35:07;;;;;;;4.13;3.28;;;;;;;;;;4875804;29;20049;-68
2021/08/17 13:37:34;;;;;;;5.28;3.53;;;;;;;;;;4887780;29;20445;-68
2021/08/17 13:40:01;;;;;;;4.93;3.22;;;;;;;;;;4875575;29;20509;-66
2021/08/17 13:42:27;;;;;;;5.13;3.13;;;;;;;;;;4875895;29;20524;-66
2021/08/17 13:44:54;;;;;;;4.25;3.05;;;;;;;;;;4875844;29;20077;-66
2021/08/17 13:47:21;;;;;;;3.70;2.80;;;;;;;;;;4859724;29;20457;-67
2021/08/17 13:49:48;;;;;;;5.78;3.20;;;;;;;;;;4868253;29;20218;-66
2021/08/17 13:52:15;;;;;;;4.95;3.78;;;;;;;;;;4876603;29;20310;-66
2021/08/17 13:54:41;;;;;;;3.90;3.05;;;;;;;;;;4879117;29;20095;-66
2021/08/17 13:57:10;;;;;;;5.07;3.13;;;;;;;;;;4864838;29;20406;-66
2021/08/17 13:59:36;;;;;;;3.95;3.03;;;;;;;;;;4859764;29;20172;-66
2021/08/17 14:02:04;;;;;;;5.18;3.25;;;;;;;;;;4860464;29;20241;-66
2021/08/17 14:04:31;;;;;;;4.40;3.28;;;;;;;;;;4858638;29;20565;-66
2021/08/17 14:06:58;;;;;;;5.05;3.25;;;;;;;;;;4872484;29;20485;-66
2021/08/17 14:09:24;;;;;;;5.25;3.67;;;;;;;;;;4878445;29;20136;-66
2021/08/17 14:11:51;;;;;;;5.32;3.53;;;;;;;;;;4878499;29;20099;-66
2021/08/17 14:14:18;;;;;;;6.18;3.67;;;;;;;;;;4878869;29;20100;-66
2021/08/17 14:16:45;;;;;;;4.85;3.20;;;;;;;;;;4870941;29;20083;-66
2021/08/17 14:19:12;;;;;;;4.57;3.55;;;;;;;;;;4877192;29;20141;-66
2021/08/17 14:21:40;;;;;;;4.75;3.22;;;;;;;;;;4878465;29;20469;-67
2021/08/17 14:24:07;;;;;;;6.35;3.65;;;;;;;;;;4878119;29;20525;-66
2021/08/17 14:26:37;;;;;;;5.40;3.60;;;;;;;;;;4877555;29;20096;-66
2021/08/17 14:29:04;;;;;;;7.25;3.90;;;;;;;;;;4878611;29;20504;-66
2021/08/17 14:31:31;;;;;;;7.05;4.10;;;;;;;;;;4878323;29;20092;-66
2021/08/17 14:33:58;;;;;;;5.13;3.75;;;;;;;;;;4878549;29;20092;-66
2021/08/17 14:36:24;;;;;;;5.70;4.00;;;;;;;;;;4877696;29;20493;-66
2021/08/17 14:38:51;;;;;;;6.07;3.70;;;;;;;;;;4877832;29;20057;-65
2021/08/17 14:41:18;;;;;;;7.88;3.83;;;;;;;;;;4878505;29;20482;-69
2021/08/17 14:43:45;;;;;;;4.10;3.30;;;;;;;;;;4878294;29;20099;-66
2021/08/17 14:46:15;;;;;;;6.25;3.83;;;;;;;;;;4878025;29;20080;-67
2021/08/17 14:48:42;;;;;;;7.13;4.20;;;;;;;;;;4869660;29;20148;-67
2021/08/17 14:51:10;;;;;;;6.68;3.65;;;;;;;;;;4876155;29;20222;-67
2021/08/17 14:53:37;;;;;;;4.90;3.67;;;;;;;;;;4876663;29;20132;-66
2021/08/17 14:56:04;;;;;;;7.68;3.70;;;;;;;;;;4876179;29;20516;-66
2021/08/17 14:58:31;;;;;;;5.68;4.03;;;;;;;;;;4875563;29;20124;-65
2021/08/17 15:00:58;;;;;;;5.78;4.07;;;;;;;;;;4877181;29;20080;-66
2021/08/17 15:03:25;;;;;;;6.40;4.00;;;;;;;;;;4876533;29;20091;-65
2021/08/17 15:05:51;;;;;;;6.22;4.20;;;;;;;;;;4876148;29;20048;-66
2021/08/17 15:08:20;;;;;;;6.07;4.05;;;;;;;;;;4876314;29;20049;-67